ADDS METAR Data INFO
IDs: Format: Raw Decoded Include TAF

Data at: 0159 UTC 17 Oct 2017

KRVS 170153Z 00000KT 10SM CLR 10/07 A3029 RMK AO2 SLP261 T01000072
KRVS 170053Z 00000KT 10SM CLR 11/07 A3030 RMK AO2 SLP265 T01110072
KRVS 162353Z 00000KT 10SM CLR 13/08 A3029 RMK AO2 SLP261 T01330078 10211 20133 56011
KRVS 162253Z 18003KT 10SM CLR 20/03 A3029 RMK AO2 SLP267 T02000028
KRVS 162153Z 13003KT 10SM CLR 21/02 A3030 RMK AO2 SLP271 T02060022
KRVS 162053Z 12005KT 10SM CLR 21/01 A3032 RMK AO2 SLP275 T02110011 56033
KRVS 161953Z VRB03KT 10SM CLR 20/01 A3035 RMK AO2 SLP286 T02000006
KRVS 161853Z 00000KT 10SM CLR 20/02 A3038 RMK AO2 SLP297 T02000017
KRVS 161753Z 00000KT 10SM CLR 18/02 A3042 RMK AO2 SLP310 T01830017 10194 20050 58012
KRVS 161653Z 10SM CLR 18/03 A3045 RMK AO2 SLP319 T01830033
KRVS 161553Z VRB04KT 10SM CLR 16/06 A3046 RMK AO2 SLP323 T01610061
KRVS 161453Z 00000KT 10SM CLR 13/07 A3045 RMK AO2 SLP316 T01330067 52008
KRVS 161353Z 00000KT 10SM CLR 09/07 A3045 RMK AO2 SLP315 T00940067
KRVS 161253Z 00000KT 8SM CLR 06/04 A3044 RMK AO2 SLP312 T00560044
KRVS 161153Z 00000KT 10SM CLR 06/04 A3043 RMK AO2 SLP309 T00560044 10083 20056 53006 $
KRVS 161053Z AUTO 00000KT 10SM CLR 06/05 A3042 RMK AO2 SLP305 T00610050 $
KRVS 160953Z AUTO 00000KT 10SM CLR 06/05 A3042 RMK AO2 SLP309 T00610050 $
KRVS 160853Z AUTO 00000KT 10SM CLR 07/06 A3041 RMK AO2 SLP308 T00720056 50002 $
KRVS 160753Z AUTO 00000KT 10SM CLR 07/06 A3041 RMK AO2 SLP309 T00720056 $
KRVS 160653Z AUTO 00000KT 10SM CLR 07/06 A3041 RMK AO2 SLP306 T00720056 $
KRVS 160553Z AUTO 00000KT 10SM CLR 08/06 A3041 RMK AO2 SLP300 T00780056 10167 20078 402060078 51008 $
KRVS 160453Z AUTO 00000KT 10SM CLR 08/06 A3040 RMK AO2 SLP299 T00830061 $
KRVS 160353Z AUTO 33003KT 10SM CLR 10/06 A3040 RMK AO2 SLP297 T01000056 $
KRVS 160253Z AUTO 32003KT 10SM CLR 11/06 A3038 RMK AO2 SLP292 LAST T01060061 51017 $
KRVS 160153Z 00000KT 10SM CLR 11/07 A3037 RMK AO2 SLP288 T01060067 $
KRVS 160053Z 32003KT 10SM CLR 14/04 A3035 RMK AO2 SLP281 T01440044 $
KRVS 152353Z 34005KT 10SM CLR 17/03 A3033 RMK AO2 SLP280 T01670033 10206 20167 55002 $
KRVS 152253Z 35007KT 10SM CLR 19/03 A3032 RMK AO2 SLP276 T01890033 $
KRVS 152153Z 01006KT 10SM CLR 20/04 A3033 RMK AO2 SLP276 T02000039 $
KRVS 152053Z VRB06G16KT 9SM CLR 20/03 A3034 RMK AO2 SLP280 T02000033 56010 $
KRVS 151953Z VRB06KT 10SM CLR 20/05 A3034 RMK AO2 SLP280 T02000050 $
KRVS 151853Z VRB04G16KT 10SM CLR 19/06 A3036 RMK AO2 SLP286 T01890061 $
KRVS 151753Z 36007G17KT 10SM CLR 18/06 A3037 RMK AO2 SLP290 T01780061 10178 20111 50003 $
KRVS 151653Z 35012G16KT 10SM CLR 16/07 A3038 RMK AO2 SLP292 T01610067 $
KRVS 151553Z 02009KT 10SM CLR 15/07 A3037 RMK AO2 SLP289 T01500067 $
KRVS 151453Z 01009G18KT 10SM CLR 13/07 A3036 RMK AO2 SLP285 T01330067 51027 $